URRP 142200Z 15002MPS CAVOK 21/12 Q1008 R05/CLRD70 NOSIG RMK QFE751/1002
QNH:(hPa/inHg/mmHg)1008 / 29.77 / 756
QFE:(hPa/inHg/mmHg)998 / 29.46 / 748
Temperature21
Dew Point12
Visibility> 10000
WeatherCAVOK
Cloud Cover
Transition Altitude3500 ft.
Transition LevelFL60
SQUAWK